A- A+ FrançaisEnglishEspañol中国

le plus proche LFBT Tarbes-Lourdes-PyrénéesLFRV Vannes-MeuconLFCS Bordeaux-Leognan-SaucatsLFGZ Nuits-Saint-Georges

manche à air

La météo aéronautique pour les pilotes, la préparation du vol avec les METAR (METeorological Aerodrome Report, message d'observation des conditions météorologiques pour l'aviation) et Les TAF (Terminal Aerodrome Forecast : message de prévision à court terme des conditions météorologiques pour l'aviation). Et les autres ressources comme les VAC (Visual Approch Chart) et les NOTAM (Notice To Airman) pour préprer les vols.

Aéroport Setif Ain Arnat (Algérie) / OACI DAAS/ IATA QSF

L'altitude de l'aéroport Setif Ain Arnat est de 1024 m=3360 ft. Il est situé à proximité de Sétif (Algérie). La météo générale à 5 jours est disponible pour Ain Arnat situé à 1.4 km.

METAR de l'aéroport Setif Ain Arnat - DAAS

DAAS 140900Z VRB02KT 0100 FG VV/// 00/00 Q1026

Décodage du METAR de l'aéroport Setif Ain Arnat (DZ)

METAR émis par DAAS le mardi 14 janvier 2020 à 09:00 heure TU, il y a 32 minutes.

La visibilité est de 0.1 km=0.1 sm, il y a du brouillard.

La température est de 0°C=32 °F et le point rosée est de 0°C=32 °F . Ce qui correspond à 100% d'humidité relative.

Le QNH est de 1026 hPa=30.3 inHg

Vent de 2 kt=4 km/h, orienté à °.

Nuages : VV0 ft=0 mètres.

FG

TAF de l'aéroport Setif Ain Arnat - DAAS

DAAS 140500Z 1406/1506 04007KT 0100 FG BKN002 TEMPO 1406/1409 1500 BR BKN010 BECMG 1409/1411 6000 FEW040 PROB30 TEMPO 1412/1418 FEW023TCU

DAAS 140500Z 1406/1506 04007KT 0100 brouillard couverture nuageuse fragmentée à 002 temporairement 1406/1409 1500 brume couverture nuageuse fragmentée à 010 devenant 1409/1411 6000 quelques nuages à 040 probabilité de 30% d'avoir temporairement 1412/1418 quelques nuages à 023TCU

Aéroport à proximité de Setif Ain Arnat

Météo générale à 5 jours à Ain Arnat (1.4 km)DAAE Aéroport Bejaia Soummam (64 km)DAAV Aéroport Jijell Taher (84 km)DAAM Aéroport Telergma (94 km)DABT Aéroport Batna (100 km)DABC Aéroport Constantine Ain El Bey (117 km)DAAD Aéroport Bou Saada (138 km)

Vue aérienne de l'aéroport Setif Ain Arnat

NOTAM de l'aéroport Setif Ain Arnat

Les NOTAM sont fournis sans aucune garantie de leur actualité. Le pilote est le seul responsable de la vérification de sa validité avant de l'utiliser opérationnellement pour préparer un vol ou l'utiliser lors de sa navigation.

Pas de NOTAM

Sources des données